createdAt,value
2022-11-18T00:00:05.046Z,14.29
2022-11-18T00:02:33.015Z,14.32
2022-11-18T00:05:01.328Z,14.38
2022-11-18T00:07:29.394Z,14.46
2022-11-18T00:09:58.783Z,14.49
2022-11-18T00:12:43.889Z,14.52
2022-11-18T00:15:11.824Z,14.55
2022-11-18T00:17:39.710Z,14.58
2022-11-18T00:20:08.398Z,14.64
2022-11-18T00:22:36.489Z,14.65
2022-11-18T00:25:06.320Z,14.65
2022-11-18T00:27:34.478Z,14.66
2022-11-18T00:30:02.743Z,14.70
2022-11-18T00:32:30.812Z,14.75
2022-11-18T00:34:58.702Z,14.80
2022-11-18T00:37:26.630Z,14.86
2022-11-18T00:39:54.720Z,14.90
2022-11-18T00:42:41.336Z,14.94
2022-11-18T00:45:10.047Z,14.93
2022-11-18T00:47:37.970Z,14.93
2022-11-18T00:50:06.750Z,14.97
2022-11-18T00:52:34.678Z,14.95
2022-11-18T00:55:02.560Z,14.89
2022-11-18T00:57:31.816Z,14.79
2022-11-18T00:59:59.726Z,14.73
2022-11-18T01:02:27.949Z,14.69
2022-11-18T01:04:56.166Z,14.74
2022-11-18T01:07:24.176Z,14.81
2022-11-18T01:09:52.179Z,14.88
2022-11-18T01:12:37.308Z,14.94
2022-11-18T01:15:07.591Z,14.98
2022-11-18T01:17:35.508Z,15.04
2022-11-18T01:20:03.523Z,15.09
2022-11-18T01:22:31.407Z,15.09
2022-11-18T01:24:59.742Z,15.03
2022-11-18T01:27:27.663Z,14.97
2022-11-18T01:29:55.560Z,14.87
2022-11-18T01:32:25.766Z,14.71
2022-11-18T01:34:53.851Z,14.62
2022-11-18T01:37:21.741Z,14.53
2022-11-18T01:39:49.646Z,14.44
2022-11-18T01:42:20.396Z,14.40
2022-11-18T01:45:05.242Z,14.35
2022-11-18T01:47:37.245Z,14.21
2022-11-18T01:50:05.878Z,14.22
2022-11-18T01:52:34.111Z,14.16
2022-11-18T01:55:05.283Z,14.13
2022-11-18T01:57:33.278Z,14.10
2022-11-18T02:00:03.761Z,14.11
2022-11-18T02:02:32.288Z,14.06
2022-11-18T02:05:01.651Z,14.05
2022-11-18T02:07:29.638Z,14.04
2022-11-18T02:09:57.616Z,14.00
2022-11-18T02:12:25.570Z,13.95
2022-11-18T02:14:53.556Z,13.92
2022-11-18T02:17:30.767Z,13.91
2022-11-18T02:20:20.089Z,13.90
2022-11-18T02:23:14.334Z,13.91
2022-11-18T02:25:45.441Z,13.90
2022-11-18T02:28:22.272Z,13.76
2022-11-18T02:30:54.200Z,13.60
2022-11-18T02:33:24.388Z,13.48
2022-11-18T02:35:54.667Z,13.45
2022-11-18T02:38:24.738Z,13.43
2022-11-18T02:40:54.913Z,13.44
2022-11-18T02:43:24.218Z,13.52
2022-11-18T02:45:55.464Z,13.59
2022-11-18T02:48:23.801Z,13.67
2022-11-18T02:50:51.822Z,13.76
2022-11-18T02:53:21.558Z,13.81
2022-11-18T02:55:49.476Z,13.83
2022-11-18T02:58:18.788Z,13.78
2022-11-18T03:00:46.725Z,13.84
2022-11-18T03:03:29.613Z,13.81
2022-11-18T03:06:08.452Z,13.80
2022-11-18T03:08:38.713Z,13.83
2022-11-18T03:11:11.380Z,13.84
2022-11-18T03:13:44.536Z,13.90
2022-11-18T03:16:13.497Z,13.91
2022-11-18T03:18:45.481Z,13.87
2022-11-18T03:21:15.544Z,13.84
2022-11-18T03:23:44.761Z,13.80
2022-11-18T03:26:14.112Z,13.69
2022-11-18T03:28:43.949Z,13.57
2022-11-18T03:31:14.612Z,13.52
2022-11-18T03:33:44.880Z,13.52
2022-11-18T03:36:12.868Z,13.56
2022-11-18T03:38:42.084Z,13.60
2022-11-18T03:41:10.717Z,13.67
2022-11-18T03:43:40.797Z,13.73
2022-11-18T03:46:09.542Z,13.80
2022-11-18T03:48:39.304Z,13.87
2022-11-18T03:51:09.795Z,13.93
2022-11-18T03:53:39.554Z,13.96
2022-11-18T03:56:15.799Z,13.97
2022-11-18T03:58:49.129Z,13.93
2022-11-18T04:01:18.421Z,13.86
2022-11-18T04:03:46.392Z,13.78
2022-11-18T04:06:23.417Z,13.68
2022-11-18T04:08:51.997Z,13.64
2022-11-18T04:11:35.453Z,13.62
2022-11-18T04:14:03.321Z,13.72
2022-11-18T04:16:31.228Z,13.76
2022-11-18T04:19:04.400Z,13.68
2022-11-18T04:21:36.624Z,13.57
2022-11-18T04:24:05.033Z,13.53
2022-11-18T04:26:33.016Z,13.54
2022-11-18T04:29:00.969Z,13.57
2022-11-18T04:31:29.007Z,13.65
2022-11-18T04:33:56.924Z,13.67
2022-11-18T04:36:24.850Z,13.71
2022-11-18T04:38:54.147Z,13.77
2022-11-18T04:41:42.066Z,13.82
2022-11-18T04:44:13.407Z,13.83
2022-11-18T04:46:42.550Z,13.86
2022-11-18T04:49:10.610Z,13.90
2022-11-18T04:51:38.642Z,13.95
2022-11-18T04:54:08.473Z,13.98
2022-11-18T04:56:36.498Z,14.06
2022-11-18T04:59:04.666Z,14.11
2022-11-18T05:01:32.745Z,14.06
2022-11-18T05:04:01.230Z,13.96
2022-11-18T05:06:29.203Z,13.88
2022-11-18T05:08:58.673Z,13.84
2022-11-18T05:11:45.342Z,13.87
2022-11-18T05:14:13.245Z,13.90
2022-11-18T05:16:41.130Z,13.91
2022-11-18T05:19:09.201Z,13.89
2022-11-18T05:21:37.510Z,13.86
2022-11-18T05:24:06.420Z,13.84
2022-11-18T05:26:35.837Z,13.86
2022-11-18T05:29:03.773Z,13.84
2022-11-18T05:31:31.736Z,13.85
2022-11-18T05:33:59.652Z,13.87
2022-11-18T05:36:27.874Z,13.93
2022-11-18T05:38:55.794Z,13.98
2022-11-18T05:41:41.092Z,14.04
2022-11-18T05:44:10.439Z,14.05
2022-11-18T05:46:38.446Z,14.12
2022-11-18T05:49:06.591Z,14.19
2022-11-18T05:51:34.566Z,14.14
2022-11-18T05:54:04.143Z,14.04
2022-11-18T05:56:34.697Z,13.94
2022-11-18T05:59:02.581Z,13.90
2022-11-18T06:01:34.340Z,13.90
2022-11-18T06:04:02.334Z,13.92
2022-11-18T06:06:30.335Z,13.94
2022-11-18T06:08:59.668Z,14.00
2022-11-18T06:11:27.819Z,14.01
2022-11-18T06:13:57.896Z,14.04
2022-11-18T06:16:29.159Z,14.01
2022-11-18T06:18:58.382Z,14.09
2022-11-18T06:21:26.379Z,14.13
2022-11-18T06:23:54.398Z,14.16
2022-11-18T06:26:22.386Z,14.18
2022-11-18T06:28:50.309Z,14.23
2022-11-18T06:31:18.485Z,14.27
2022-11-18T06:33:46.497Z,14.27
2022-11-18T06:36:15.776Z,14.27
2022-11-18T06:38:43.745Z,14.31
2022-11-18T06:41:11.657Z,14.27
2022-11-18T06:43:39.275Z,14.06
2022-11-18T06:46:25.122Z,13.89
2022-11-18T06:48:53.105Z,13.70
2022-11-18T06:51:23.502Z,13.69
2022-11-18T06:53:51.534Z,13.65
2022-11-18T06:56:20.157Z,13.62
2022-11-18T06:58:48.239Z,13.62
2022-11-18T07:01:17.133Z,13.60
2022-11-18T07:03:45.859Z,13.59
2022-11-18T07:06:14.599Z,13.65
2022-11-18T07:08:44.016Z,13.73
2022-11-18T07:11:12.766Z,13.77
2022-11-18T07:13:43.764Z,13.77
2022-11-18T07:16:12.963Z,13.78
2022-11-18T07:18:41.755Z,13.76
2022-11-18T07:21:10.692Z,13.75
2022-11-18T07:23:38.603Z,13.72
2022-11-18T07:26:08.350Z,13.72
2022-11-18T07:28:36.299Z,13.70
2022-11-18T07:31:04.755Z,13.71
2022-11-18T07:33:32.800Z,13.74
2022-11-18T07:36:03.918Z,13.76
2022-11-18T07:38:31.930Z,13.71
2022-11-18T07:41:04.970Z,13.65
2022-11-18T07:43:35.037Z,13.62
2022-11-18T07:46:13.538Z,13.63
2022-11-18T07:48:41.754Z,13.59
2022-11-18T07:51:09.773Z,13.61
2022-11-18T07:53:38.055Z,13.66
2022-11-18T07:56:06.735Z,13.70
2022-11-18T07:58:36.216Z,13.74
2022-11-18T08:01:08.718Z,13.77
2022-11-18T08:03:36.744Z,13.82
2022-11-18T08:06:05.054Z,13.87
2022-11-18T08:08:32.995Z,13.93
2022-11-18T08:11:02.017Z,13.96
2022-11-18T08:13:30.063Z,13.98
2022-11-18T08:15:59.575Z,14.01
2022-11-18T08:18:28.850Z,14.09
2022-11-18T08:20:56.831Z,14.13
2022-11-18T08:23:28.710Z,14.17
2022-11-18T08:26:03.301Z,14.19
2022-11-18T08:28:31.499Z,14.21
2022-11-18T08:31:00.936Z,14.25
2022-11-18T08:33:29.230Z,14.31
2022-11-18T08:35:57.193Z,14.34
2022-11-18T08:38:25.179Z,14.39
2022-11-18T08:40:53.089Z,14.42
2022-11-18T08:43:22.038Z,14.44
2022-11-18T08:45:50.211Z,14.46
2022-11-18T08:48:19.603Z,14.53
2022-11-18T08:50:47.706Z,14.59
2022-11-18T08:53:16.491Z,14.71
2022-11-18T08:55:44.476Z,14.78
2022-11-18T08:58:12.392Z,14.80
2022-11-18T09:00:40.338Z,14.79
2022-11-18T09:03:08.284Z,14.76
2022-11-18T09:05:37.695Z,14.74
2022-11-18T09:08:06.244Z,14.77
2022-11-18T09:10:34.560Z,14.85
2022-11-18T09:13:18.413Z,14.87
2022-11-18T09:15:50.792Z,14.86
2022-11-18T09:18:18.822Z,14.81
2022-11-18T09:20:56.754Z,14.81
2022-11-18T09:23:24.720Z,14.77
2022-11-18T09:25:59.010Z,14.82
2022-11-18T09:28:28.038Z,14.88
2022-11-18T09:30:56.004Z,14.94
2022-11-18T09:33:24.058Z,14.98
2022-11-18T09:35:51.935Z,15.03
2022-11-18T09:38:21.441Z,15.10
2022-11-18T09:40:54.065Z,15.19
2022-11-18T09:43:23.854Z,15.25
2022-11-18T09:45:54.723Z,15.29
2022-11-18T09:48:43.042Z,15.36
2022-11-18T09:51:11.114Z,15.41
2022-11-18T09:53:40.869Z,15.46
2022-11-18T09:56:12.227Z,15.53
2022-11-18T09:58:40.598Z,15.59
2022-11-18T10:01:11.860Z,15.66
2022-11-18T10:03:39.988Z,15.71
2022-11-18T10:06:19.256Z,15.69
2022-11-18T10:09:01.032Z,15.69
2022-11-18T10:11:36.106Z,15.66
2022-11-18T10:14:15.966Z,15.63
2022-11-18T10:16:50.869Z,15.62
2022-11-18T10:19:26.870Z,15.58
2022-11-18T10:22:19.469Z,15.61
2022-11-18T10:24:53.555Z,15.57
2022-11-18T10:27:21.841Z,15.56
2022-11-18T10:29:57.053Z,15.51
2022-11-18T10:32:25.151Z,15.53
2022-11-18T10:34:54.212Z,15.49
2022-11-18T10:37:39.058Z,15.31
2022-11-18T10:40:25.194Z,15.35
2022-11-18T10:42:53.160Z,15.32
2022-11-18T10:45:26.192Z,15.30
2022-11-18T10:48:08.396Z,15.26
2022-11-18T10:50:37.250Z,15.23
2022-11-18T10:53:05.726Z,15.22
2022-11-18T10:55:35.177Z,15.29
2022-11-18T10:58:04.772Z,15.41
2022-11-18T11:00:47.064Z,15.63
2022-11-18T11:03:42.147Z,16.00
2022-11-18T11:06:33.254Z,16.17
2022-11-18T11:09:02.965Z,15.95
2022-11-18T11:11:33.067Z,16.15
2022-11-18T11:14:08.542Z,16.51
2022-11-18T11:16:40.078Z,16.82
2022-11-18T11:19:08.572Z,16.79
2022-11-18T11:21:36.481Z,16.72
2022-11-18T11:24:06.790Z,17.04
2022-11-18T11:29:35.174Z,17.43
2022-11-18T11:32:06.754Z,17.56
2022-11-18T11:34:38.073Z,17.62
2022-11-18T11:37:10.952Z,17.69
2022-11-18T11:39:45.666Z,17.67
2022-11-18T11:42:19.869Z,17.58
2022-11-18T11:44:55.026Z,17.35
2022-11-18T11:47:44.636Z,17.12
2022-11-18T11:50:14.960Z,16.86
2022-11-18T11:52:47.397Z,16.78
2022-11-18T11:55:19.401Z,16.88
2022-11-18T11:58:00.481Z,17.01
2022-11-18T12:00:28.936Z,17.18
2022-11-18T12:03:08.671Z,16.94
2022-11-18T12:05:39.230Z,17.03
2022-11-18T12:08:09.686Z,16.96
2022-11-18T12:10:43.235Z,17.21
2022-11-18T12:13:19.231Z,17.52
2022-11-18T12:15:53.164Z,17.31
2022-11-18T12:18:22.425Z,17.12
2022-11-18T12:20:50.986Z,17.28
2022-11-18T12:23:21.522Z,17.52
2022-11-18T12:25:57.377Z,17.44
2022-11-18T12:28:29.323Z,17.18
2022-11-18T12:31:42.926Z,17.11
2022-11-18T12:34:27.897Z,16.81
2022-11-18T12:36:55.901Z,16.98
2022-11-18T12:39:50.983Z,17.33
2022-11-18T12:42:54.050Z,17.21
2022-11-18T12:45:53.590Z,17.00
2022-11-18T12:48:35.510Z,16.90
2022-11-18T12:51:04.257Z,16.72
2022-11-18T12:53:34.470Z,16.62
2022-11-18T12:56:02.435Z,16.51
2022-11-18T12:58:30.335Z,16.55
2022-11-18T13:01:18.393Z,16.74
2022-11-18T13:03:46.424Z,16.80
2022-11-18T13:06:20.229Z,16.61
2022-11-18T13:08:51.907Z,17.11
2022-11-18T13:11:37.463Z,17.88
2022-11-18T13:14:23.635Z,18.78
2022-11-18T13:17:10.386Z,19.48
2022-11-18T13:19:38.283Z,19.68
2022-11-18T13:22:34.947Z,19.30
2022-11-18T13:25:02.846Z,19.14
2022-11-18T13:27:38.170Z,19.07
2022-11-18T13:30:08.464Z,18.69
2022-11-18T13:32:37.705Z,18.22
2022-11-18T13:35:11.976Z,17.83
2022-11-18T13:37:48.621Z,17.79
2022-11-18T13:40:20.003Z,17.32
2022-11-18T13:42:48.521Z,17.44
2022-11-18T13:45:16.416Z,17.60
2022-11-18T13:47:47.434Z,17.80
2022-11-18T13:50:18.540Z,17.93
2022-11-18T13:52:48.801Z,17.75
2022-11-18T13:55:20.056Z,17.48
2022-11-18T13:57:49.249Z,17.20
2022-11-18T14:00:24.469Z,17.02
2022-11-18T14:02:57.737Z,16.97
2022-11-18T14:05:25.599Z,16.91
2022-11-18T14:08:02.802Z,16.75
2022-11-18T14:10:36.629Z,16.96
2022-11-18T14:13:17.677Z,16.93
2022-11-18T14:15:45.611Z,17.16
2022-11-18T14:18:20.978Z,17.19
2022-11-18T14:20:52.604Z,17.02
2022-11-18T14:23:20.743Z,16.93
2022-11-18T14:25:48.625Z,16.90
2022-11-18T14:28:21.798Z,16.87
2022-11-18T14:31:03.899Z,16.85
2022-11-18T14:33:33.486Z,16.94
2022-11-18T14:36:02.209Z,17.09
2022-11-18T14:41:44.394Z,17.28
2022-11-18T14:44:13.855Z,17.33
2022-11-18T14:46:42.501Z,17.33
2022-11-18T14:49:14.751Z,17.27
2022-11-18T14:51:42.640Z,17.18
2022-11-18T14:54:14.011Z,17.02
2022-11-18T14:56:41.975Z,16.85
2022-11-18T14:59:15.058Z,16.72
2022-11-18T15:01:43.187Z,16.72
2022-11-18T15:04:12.603Z,16.72
2022-11-18T15:06:40.548Z,16.69
2022-11-18T15:09:08.871Z,16.64
2022-11-18T15:11:36.833Z,16.53
2022-11-18T15:14:05.051Z,16.38
2022-11-18T15:16:33.796Z,16.24
2022-11-18T15:19:02.619Z,16.11
2022-11-18T15:21:32.034Z,16.00
2022-11-18T15:23:59.946Z,15.91
2022-11-18T15:26:29.810Z,15.82
2022-11-18T15:28:58.550Z,15.73
2022-11-18T15:31:26.644Z,15.65
2022-11-18T15:33:54.589Z,15.59
2022-11-18T15:36:23.138Z,15.50
2022-11-18T15:38:52.611Z,15.42
2022-11-18T15:41:21.576Z,15.37
2022-11-18T15:43:49.671Z,15.32
2022-11-18T15:46:19.336Z,15.30
2022-11-18T15:48:47.286Z,15.26
2022-11-18T15:51:15.211Z,15.20
2022-11-18T15:53:43.087Z,15.10
2022-11-18T15:56:31.562Z,15.09
2022-11-18T15:59:00.292Z,15.01
2022-11-18T16:01:29.368Z,14.96
2022-11-18T16:03:57.400Z,14.86
2022-11-18T16:06:25.743Z,14.87
2022-11-18T16:08:59.243Z,14.85
2022-11-18T16:11:46.681Z,14.81
2022-11-18T16:14:15.074Z,14.75
2022-11-18T16:16:43.590Z,14.72
2022-11-18T16:19:12.409Z,14.64
2022-11-18T16:21:41.250Z,14.64
2022-11-18T16:24:10.117Z,14.59
2022-11-18T16:26:39.389Z,14.54
2022-11-18T16:29:07.530Z,14.49
2022-11-18T16:31:41.786Z,14.43
2022-11-18T16:34:09.824Z,14.38
2022-11-18T16:36:38.250Z,14.33
2022-11-18T16:39:08.140Z,14.33
2022-11-18T16:41:36.359Z,14.28
2022-11-18T16:44:06.843Z,14.29
2022-11-18T16:46:35.460Z,14.28
2022-11-18T16:49:04.334Z,14.26
2022-11-18T16:51:32.906Z,14.26
2022-11-18T16:54:01.614Z,14.27
2022-11-18T16:56:30.191Z,14.28
2022-11-18T16:58:58.819Z,14.27
2022-11-18T17:01:29.907Z,14.24
2022-11-18T17:03:59.968Z,14.21
2022-11-18T17:06:27.932Z,14.18
2022-11-18T17:08:56.098Z,14.14
2022-11-18T17:11:24.019Z,14.12
2022-11-18T17:13:56.406Z,14.10
2022-11-18T17:16:27.121Z,14.09
2022-11-18T17:18:55.699Z,14.08
2022-11-18T17:21:23.625Z,14.11
2022-11-18T17:23:51.819Z,14.11
2022-11-18T17:26:20.825Z,14.12
2022-11-18T17:28:48.875Z,14.11
2022-11-18T17:31:17.745Z,14.12
2022-11-18T17:33:48.241Z,14.11
2022-11-18T17:36:17.062Z,14.10
2022-11-18T17:38:46.694Z,14.06
2022-11-18T17:41:36.003Z,14.05
2022-11-18T17:44:05.166Z,13.98
2022-11-18T17:46:37.820Z,13.96
2022-11-18T17:49:09.109Z,13.94
2022-11-18T17:51:37.029Z,13.89
2022-11-18T17:54:05.128Z,13.84
2022-11-18T17:56:33.145Z,13.73
2022-11-18T17:59:01.246Z,13.76
2022-11-18T18:01:29.593Z,13.73
2022-11-18T18:03:57.635Z,13.72
2022-11-18T18:06:26.901Z,13.69
2022-11-18T18:08:57.217Z,13.65
2022-11-18T18:11:25.172Z,13.62
2022-11-18T18:14:10.780Z,13.62
2022-11-18T18:16:38.687Z,13.56
2022-11-18T18:19:07.493Z,13.47
2022-11-18T18:21:36.838Z,13.43
2022-11-18T18:24:05.469Z,13.42
2022-11-18T18:26:33.441Z,13.42
2022-11-18T18:29:01.519Z,13.37
2022-11-18T18:31:29.488Z,13.35
2022-11-18T18:33:57.430Z,13.34
2022-11-18T18:36:25.932Z,13.33
2022-11-18T18:38:55.197Z,13.30
2022-11-18T18:41:23.444Z,13.32
2022-11-18T18:43:51.357Z,13.31
2022-11-18T18:46:32.345Z,13.31
2022-11-18T18:49:02.904Z,13.23
2022-11-18T18:51:33.929Z,13.24
2022-11-18T18:54:03.219Z,13.21
2022-11-18T18:56:31.588Z,13.23
2022-11-18T18:58:59.572Z,13.21
2022-11-18T19:01:28.060Z,13.19
2022-11-18T19:03:56.753Z,13.14
2022-11-18T19:06:53.218Z,13.13
2022-11-18T19:09:16.069Z,13.08
2022-11-18T19:12:01.926Z,13.05
2022-11-18T19:14:29.996Z,12.92
2022-11-18T19:16:57.953Z,13.03
2022-11-18T19:19:40.553Z,13.01
2022-11-18T19:22:08.783Z,12.98
2022-11-18T19:24:54.217Z,12.94
2022-11-18T19:27:22.797Z,12.92
2022-11-18T19:29:50.707Z,12.90
2022-11-18T19:32:19.021Z,12.87
2022-11-18T19:34:46.942Z,12.84
2022-11-18T19:37:14.849Z,12.81
2022-11-18T19:39:44.227Z,12.81
2022-11-18T19:42:12.262Z,12.81
2022-11-18T19:44:40.122Z,12.79
2022-11-18T19:47:07.974Z,12.79
2022-11-18T19:49:35.890Z,12.79
2022-11-18T19:52:03.795Z,12.81
2022-11-18T19:54:34.828Z,12.82
2022-11-18T19:57:04.263Z,12.81
2022-11-18T19:59:32.127Z,12.80
2022-11-18T20:02:00.096Z,12.79
2022-11-18T20:04:28.206Z,12.78
2022-11-18T20:06:56.787Z,12.80
2022-11-18T20:09:25.379Z,12.78
2022-11-18T20:11:53.494Z,12.78
2022-11-18T20:14:22.906Z,12.76
2022-11-18T20:16:51.957Z,12.74
2022-11-18T20:19:20.184Z,12.72
2022-11-18T20:21:49.606Z,12.71
2022-11-18T20:24:18.531Z,12.70
2022-11-18T20:26:46.852Z,12.61
2022-11-18T20:29:14.728Z,12.66
2022-11-18T20:31:44.160Z,12.64
2022-11-18T20:34:12.761Z,12.62
2022-11-18T20:36:40.842Z,12.58
2022-11-18T20:39:09.609Z,12.59
2022-11-18T20:41:37.493Z,12.56
2022-11-18T20:44:06.039Z,12.55
2022-11-18T20:46:34.494Z,12.50
2022-11-18T20:49:04.210Z,12.50
2022-11-18T20:51:32.120Z,12.48
2022-11-18T20:54:00.721Z,12.48
2022-11-18T20:56:28.797Z,12.48
2022-11-18T20:58:58.233Z,12.48
2022-11-18T21:01:27.125Z,12.46
2022-11-18T21:03:55.797Z,12.40
2022-11-18T21:06:26.330Z,12.34
2022-11-18T21:08:55.831Z,12.24
2022-11-18T21:11:23.782Z,12.09
2022-11-18T21:14:09.100Z,11.95
2022-11-18T21:16:37.085Z,11.81
2022-11-18T21:19:05.523Z,11.66
2022-11-18T21:21:45.675Z,11.60
2022-11-18T21:24:14.093Z,11.48
2022-11-18T21:26:42.384Z,11.39
2022-11-18T21:29:11.645Z,11.28
2022-11-18T21:31:39.764Z,11.20
2022-11-18T21:34:07.803Z,11.09
2022-11-18T21:36:41.442Z,11.01
2022-11-18T21:39:15.289Z,10.94
2022-11-18T21:41:43.405Z,10.92
2022-11-18T21:44:12.055Z,10.90
2022-11-18T21:46:40.622Z,10.96
2022-11-18T21:49:09.083Z,10.98
2022-11-18T21:51:38.714Z,11.03
2022-11-18T21:54:07.393Z,11.10
2022-11-18T21:56:35.680Z,11.19
2022-11-18T21:59:04.076Z,11.27
2022-11-18T22:01:35.125Z,11.30
2022-11-18T22:04:04.225Z,11.37
2022-11-18T22:06:33.654Z,11.41
2022-11-18T22:09:03.751Z,11.42
2022-11-18T22:11:31.733Z,11.50
2022-11-18T22:13:59.950Z,11.43
2022-11-18T22:16:28.176Z,11.43
2022-11-18T22:19:00.270Z,11.40
2022-11-18T22:21:30.403Z,11.34
2022-11-18T22:23:59.172Z,11.37
2022-11-18T22:26:28.822Z,11.38
2022-11-18T22:28:58.632Z,11.37
2022-11-18T22:31:28.211Z,11.33
2022-11-18T22:33:56.546Z,11.24
2022-11-18T22:36:25.981Z,11.13
2022-11-18T22:38:54.139Z,11.07
2022-11-18T22:41:40.079Z,10.96
2022-11-18T22:44:09.659Z,10.82
2022-11-18T22:46:37.854Z,10.75
2022-11-18T22:49:05.853Z,10.68
2022-11-18T22:51:33.701Z,10.64
2022-11-18T22:54:37.597Z,10.57
2022-11-18T22:56:49.483Z,10.48
2022-11-18T22:59:19.191Z,10.44
2022-11-18T23:01:47.175Z,10.38
2022-11-18T23:04:15.113Z,10.32
2022-11-18T23:06:43.007Z,10.26
2022-11-18T23:09:10.856Z,10.20
2022-11-18T23:11:56.373Z,10.11
2022-11-18T23:14:25.615Z,10.04
2022-11-18T23:16:53.689Z,9.97
2022-11-18T23:19:22.003Z,9.93
2022-11-18T23:21:50.125Z,9.97
2022-11-18T23:24:18.884Z,9.98
2022-11-18T23:26:46.826Z,10.02
2022-11-18T23:29:15.102Z,10.06
2022-11-18T23:31:45.062Z,10.10
2022-11-18T23:34:13.344Z,10.15
2022-11-18T23:36:41.295Z,10.14
2022-11-18T23:39:09.411Z,10.09
2022-11-18T23:41:37.422Z,10.03
2022-11-18T23:44:05.655Z,9.96
2022-11-18T23:46:33.543Z,9.89
2022-11-18T23:49:02.823Z,9.86
2022-11-18T23:51:30.791Z,9.81
2022-11-18T23:53:58.639Z,9.75
2022-11-18T23:56:27.613Z,9.71
2022-11-18T23:58:56.947Z,9.68
